Time;durP1;ratioP1;P1;durP2;ratioP2;P2;SDS_P1;SDS_P2;PMS_P1;PMS_P2;Temp;Humidity;BMP_temperature;BMP_pressure;BME280_temperature;BME280_humidity;BME280_pressure;Samples;Min_cycle;Max_cycle;Signal;HPM_P1;HPM_P2
2023/11/04 00:01:02;;;;;;;5.42;3.15;;;;;;;7.65;100.00;97812.16;4942015;58;1136854;-73
2023/11/04 00:06:09;;;;;;;7.85;4.00;;;;;;;7.65;100.00;97826.63;4848176;58;1136701;-74
2023/11/04 00:11:15;;;;;;;5.50;3.27;;;;;;;7.66;100.00;97844.05;4992658;57;1137002;-72
2023/11/04 00:16:21;;;;;;;5.80;3.20;;;;;;;7.66;100.00;97847.50;5012182;57;1136992;-75
2023/11/04 00:21:26;;;;;;;13.93;3.50;;;;;;;7.68;100.00;97853.92;4992677;56;1136933;-74
2023/11/04 00:26:32;;;;;;;5.20;3.10;;;;;;;7.70;100.00;97865.10;4991629;57;1138768;-73
2023/11/04 00:31:37;;;;;;;7.67;3.67;;;;;;;7.67;100.00;97866.25;4992645;57;1136957;-72
2023/11/04 00:36:43;;;;;;;8.87;4.13;;;;;;;7.68;100.00;97873.16;4986715;57;1136902;-74
2023/11/04 00:41:49;;;;;;;10.47;3.27;;;;;;;7.68;100.00;97871.02;4928781;58;1136812;-72
2023/11/04 00:46:54;;;;;;;8.30;4.27;;;;;;;7.68;100.00;97877.09;4952888;57;1138765;-75
2023/11/04 00:52:00;;;;;;;4.97;3.10;;;;;;;7.68;100.00;97891.56;4928869;58;1136882;-71
2023/11/04 00:57:06;;;;;;;6.75;3.55;;;;;;;7.72;100.00;97907.85;4911712;58;1136690;-75
2023/11/04 01:02:12;;;;;;;6.73;3.60;;;;;;;7.72;100.00;97919.20;4922982;56;1136452;-75
2023/11/04 01:07:18;;;;;;;4.67;3.23;;;;;;;7.74;100.00;97932.19;5015311;57;1137008;-74
2023/11/04 01:12:23;;;;;;;7.12;4.05;;;;;;;7.76;100.00;97932.36;5074842;56;1136840;-72
2023/11/04 01:17:29;;;;;;;5.90;3.67;;;;;;;7.79;100.00;97940.92;5074504;56;1136731;-70
2023/11/04 01:22:35;;;;;;;4.65;2.98;;;;;;;7.81;100.00;97942.86;5073838;56;1136810;-75
2023/11/04 01:27:41;;;;;;;4.37;3.03;;;;;;;7.86;100.00;97946.66;5094698;57;1136395;-71
2023/11/04 01:32:47;;;;;;;10.30;3.83;;;;;;;7.91;100.00;97952.75;5074600;56;1136637;-71
2023/11/04 01:37:53;;;;;;;12.03;4.87;;;;;;;7.94;100.00;97953.25;5026727;56;1138905;-75
2023/11/04 01:42:58;;;;;;;6.92;3.25;;;;;;;7.97;100.00;97970.50;5011353;57;1138891;-72
2023/11/04 01:48:05;;;;;;;5.90;3.60;;;;;;;7.97;100.00;97967.38;4956824;57;1136768;-73
2023/11/04 01:53:11;;;;;;;6.47;3.55;;;;;;;8.01;100.00;97970.02;4931478;57;1136793;-73
2023/11/04 01:58:17;;;;;;;6.97;3.90;;;;;;;8.01;100.00;97973.96;4990750;57;1136783;-73
2023/11/04 02:03:24;;;;;;;10.70;4.50;;;;;;;8.02;100.00;97973.47;4911890;58;1136726;-71
2023/11/04 02:08:30;;;;;;;7.70;3.87;;;;;;;8.02;100.00;97987.95;4838214;58;1139060;-72
2023/11/04 02:13:37;;;;;;;6.37;4.03;;;;;;;8.03;100.00;97994.86;4838742;58;1136854;-71
2023/11/04 02:18:43;;;;;;;9.90;3.87;;;;;;;8.06;100.00;97994.53;4856206;58;1136758;-74
2023/11/04 02:23:49;;;;;;;9.63;3.70;;;;;;;8.08;100.00;98005.72;4838330;58;1136951;-72
2023/11/04 02:28:54;;;;;;;6.93;3.80;;;;;;;8.09;100.00;98005.56;4838283;58;1136969;-73
2023/11/04 02:34:00;;;;;;;9.38;4.33;;;;;;;8.12;100.00;98006.53;4857456;58;1136917;-73
2023/11/04 02:39:06;;;;;;;16.02;3.65;;;;;;;8.12;100.00;98018.86;4976380;57;1136949;-71
2023/11/04 02:44:12;;;;;;;4.15;2.87;;;;;;;8.16;100.00;98025.95;4991616;57;1138897;-71
2023/11/04 02:49:18;;;;;;;8.50;4.10;;;;;;;8.16;100.00;98028.09;5011095;57;1136742;-72
2023/11/04 02:54:23;;;;;;;4.93;3.00;;;;;;;8.15;100.00;98039.60;4989832;57;1136919;-74
2023/11/04 02:59:30;;;;;;;11.20;3.00;;;;;;;8.19;100.00;98046.69;4911095;58;1136694;-76
2023/11/04 03:04:40;;;;;;;4.70;2.43;;;;;;;8.19;100.00;98048.83;4912080;57;1139018;-73
2023/11/04 03:09:46;;;;;;;7.33;2.67;;;;;;;8.20;100.00;98044.39;4931120;57;1136949;-72
2023/11/04 03:14:52;;;;;;;3.17;2.20;;;;;;;8.20;100.00;98052.28;4910327;57;1136998;-75
2023/11/04 03:19:57;;;;;;;4.70;1.80;;;;;;;8.23;100.00;98065.95;4911550;57;1136737;-74
2023/11/04 03:25:03;;;;;;;8.10;2.08;;;;;;;8.24;100.00;98069.41;4931238;57;1136863;-71
2023/11/04 03:30:10;;;;;;;1.72;1.57;;;;;;;8.23;100.00;98071.70;4891005;57;1136886;-74
2023/11/04 03:35:16;;;;;;;2.07;1.80;;;;;;;8.23;100.00;98076.97;4911614;58;1136775;-76
2023/11/04 03:40:22;;;;;;;4.80;1.90;;;;;;;8.24;100.00;98085.20;4930531;58;1136936;-74
2023/11/04 03:45:28;;;;;;;5.50;2.27;;;;;;;8.22;100.00;98100.34;4911523;59;1136839;-71
2023/11/04 03:50:33;;;;;;;5.77;2.60;;;;;;;8.20;100.00;98100.50;4910969;58;1136831;-72
2023/11/04 03:55:39;;;;;;;9.03;2.45;;;;;;;8.19;100.00;98112.02;4915901;58;1137071;-73
2023/11/04 04:00:44;;;;;;;3.23;2.23;;;;;;;8.16;100.00;98116.28;4930382;58;1136718;-75
2023/11/04 04:05:50;;;;;;;4.70;2.60;;;;;;;8.17;100.00;98123.69;4912011;57;1136778;-74
2023/11/04 04:10:56;;;;;;;6.78;2.70;;;;;;;8.14;100.00;98132.73;4916733;57;1136700;-74
2023/11/04 04:16:02;;;;;;;6.92;3.08;;;;;;;8.16;100.00;98137.84;4931114;57;1136981;-74
2023/11/04 04:21:07;;;;;;;4.10;2.70;;;;;;;8.17;100.00;98146.89;4912989;57;1136799;-73
2023/11/04 04:26:21;;;;;;;14.27;3.87;;;;;;;8.16;100.00;98150.52;4912577;57;1136799;-71
2023/11/04 04:31:27;;;;;;;13.77;3.63;;;;;;;8.17;100.00;98166.64;4930779;58;1138895;-71
2023/11/04 04:36:33;;;;;;;5.70;2.57;;;;;;;8.16;100.00;98166.31;4911545;57;1138840;-71
2023/11/04 04:41:38;;;;;;;10.70;3.62;;;;;;;8.13;100.00;98170.08;4913908;57;1136760;-70
2023/11/04 04:46:44;;;;;;;8.70;3.10;;;;;;;8.11;100.00;98184.38;5011445;57;1139053;-70
2023/11/04 04:51:50;;;;;;;8.87;3.27;;;;;;;8.10;100.00;98190.14;4992326;57;1136803;-74
2023/11/04 04:56:57;;;;;;;12.40;3.56;;;;;;;8.12;100.00;98193.94;5016143;56;1136669;-72
2023/11/04 05:02:05;;;;;;;8.78;2.55;;;;;;;8.12;100.00;98194.76;5010834;57;1138847;-73
2023/11/04 05:07:11;;;;;;;8.55;2.72;;;;;;;8.09;100.00;98198.23;5009096;57;1136851;-69
2023/11/04 05:12:16;;;;;;;11.23;3.47;;;;;;;8.09;100.00;98204.81;5011008;57;1136774;-69
2023/11/04 05:17:22;;;;;;;11.23;2.83;;;;;;;8.06;100.00;98219.11;5036350;57;1139026;-70
2023/11/04 05:22:28;;;;;;;5.17;2.23;;;;;;;8.02;100.00;98225.67;5011346;57;1138774;-69
2023/11/04 05:27:33;;;;;;;11.40;2.67;;;;;;;7.99;100.00;98230.42;5056501;56;1136850;-72
2023/11/04 05:32:39;;;;;;;12.20;3.47;;;;;;;8.00;100.00;98236.02;5015682;57;1139039;-69
2023/11/04 05:37:45;;;;;;;11.80;2.20;;;;;;;7.97;100.00;98242.41;5077862;56;1138868;-72
2023/11/04 05:42:50;;;;;;;8.07;2.67;;;;;;;7.99;100.00;98256.73;5011095;57;1138605;-73
2023/11/04 05:47:56;;;;;;;10.17;1.97;;;;;;;7.96;100.00;98261.00;5011137;57;1136693;-73
2023/11/04 05:53:02;;;;;;;15.23;3.53;;;;;;;7.91;100.00;98269.88;5030787;57;1139088;-72
2023/11/04 05:58:08;;;;;;;6.30;2.65;;;;;;;7.87;100.00;98281.69;5074515;56;1138949;-73
2023/11/04 06:03:14;;;;;;;13.95;3.35;;;;;;;7.84;100.00;98287.26;5094413;56;1136789;-70
2023/11/04 06:08:19;;;;;;;10.53;2.23;;;;;;;7.82;100.00;98295.30;5113555;56;1138787;-73
2023/11/04 06:13:25;;;;;;;9.50;3.90;;;;;;;7.78;100.00;98297.94;5078608;56;1138826;-72
2023/11/04 06:18:31;;;;;;;11.67;3.53;;;;;;;7.75;100.00;98307.45;5029307;57;1136869;-71
2023/11/04 06:23:37;;;;;;;10.87;3.17;;;;;;;7.73;100.00;98314.18;4966595;57;1138945;-72
2023/11/04 06:28:42;;;;;;;27.40;8.50;;;;;;;7.75;100.00;98337.22;4875483;57;1138755;-75
2023/11/04 06:33:48;;;;;;;11.77;4.83;;;;;;;7.72;100.00;98332.26;4930397;55;1138932;-71
2023/11/04 06:38:53;;;;;;;11.30;3.73;;;;;;;7.69;100.00;98346.20;4908255;56;1138722;-74
2023/11/04 06:43:59;;;;;;;7.17;3.67;;;;;;;7.69;100.00;98348.84;5071952;56;1138955;-71
2023/11/04 06:49:05;;;;;;;18.35;5.00;;;;;;;7.70;100.00;98350.49;5094637;56;1136781;-72
2023/11/04 06:54:11;;;;;;;6.60;2.52;;;;;;;7.69;100.00;98352.78;5015274;57;1138953;-72
2023/11/04 06:59:17;;;;;;;17.25;5.47;;;;;;;7.68;100.00;98369.55;4958238;57;1136760;-72
2023/11/04 07:04:23;;;;;;;9.20;3.33;;;;;;;7.72;100.00;98370.90;4954666;57;1138871;-71
2023/11/04 07:09:28;;;;;;;12.80;2.43;;;;;;;7.70;100.00;98378.94;4931267;58;1136745;-75
2023/11/04 07:14:34;;;;;;;12.00;2.30;;;;;;;7.70;100.00;98386.84;4927459;57;1138884;-74
2023/11/04 07:19:39;;;;;;;11.50;2.70;;;;;;;7.72;100.00;98390.14;4986664;57;1138898;-74
2023/11/04 07:24:45;;;;;;;7.00;2.23;;;;;;;7.68;100.00;98394.54;4934202;57;1139000;-74
2023/11/04 07:29:50;;;;;;;5.43;1.73;;;;;;;7.66;100.00;98403.07;4935008;57;1136923;-74
2023/11/04 07:34:56;;;;;;;7.70;2.50;;;;;;;7.68;100.00;98409.84;4953206;57;1136744;-69
2023/11/04 07:40:04;;;;;;;5.73;1.60;;;;;;;7.68;100.00;98417.73;5010706;57;1136617;-74
2023/11/04 07:45:12;;;;;;;11.25;5.33;;;;;;;7.67;100.00;98429.23;5015095;57;1136828;-71
2023/11/04 07:50:18;;;;;;;10.97;2.60;;;;;;;7.68;100.00;98422.16;4952300;57;1138950;-70
2023/11/04 07:55:24;;;;;;;9.47;2.37;;;;;;;7.71;100.00;98427.12;4933071;57;1138908;-73
2023/11/04 08:00:30;;;;;;;10.80;5.40;;;;;;;7.69;100.00;98432.55;4957102;57;1136653;-70
2023/11/04 08:05:40;;;;;;;20.57;10.13;;;;;;;7.74;100.00;98430.78;4946343;57;1138755;-75
2023/11/04 08:10:43;;;;;;;10.83;4.70;;;;;;;7.75;100.00;98439.02;4969777;57;1140686;-74
2023/11/04 08:15:48;;;;;;;9.30;3.08;;;;;;;7.78;100.00;98443.98;4952134;56;1138876;-73
2023/11/04 08:20:54;;;;;;;9.88;3.37;;;;;;;7.78;100.00;98434.77;4930061;58;1136731;-70
2023/11/04 08:26:01;;;;;;;10.20;4.65;;;;;;;7.76;100.00;98437.55;4964004;58;1136846;-76
2023/11/04 08:31:07;;;;;;;7.45;2.27;;;;;;;7.77;100.00;98446.27;4923844;57;1138922;-74
2023/11/04 08:36:13;;;;;;;7.40;3.30;;;;;;;7.80;100.00;98445.11;5050676;57;1136747;-75
2023/11/04 08:41:18;;;;;;;11.75;6.35;;;;;;;7.85;100.00;98450.76;4950311;57;1136543;-72
2023/11/04 08:46:25;;;;;;;78.63;43.77;;;;;;;7.90;100.00;98459.86;4930211;58;1138881;-75
2023/11/04 08:51:31;;;;;;;14.50;5.13;;;;;;;7.94;100.00;98450.69;4930022;58;1140834;-77
2023/11/04 08:56:37;;;;;;;12.10;3.00;;;;;;;8.02;100.00;98453.86;4928803;58;1138759;-73
2023/11/04 09:01:42;;;;;;;14.97;5.10;;;;;;;8.06;100.00;98450.77;4884111;58;1138826;-71
2023/11/04 09:06:48;;;;;;;12.30;6.10;;;;;;;8.13;100.00;98452.28;4939650;57;1138936;-73
2023/11/04 09:11:55;;;;;;;17.97;6.90;;;;;;;8.22;100.00;98455.33;4951221;57;1138967;-74
2023/11/04 09:17:01;;;;;;;11.35;3.25;;;;;;;8.27;100.00;98458.30;4994826;57;1138897;-74
2023/11/04 09:22:08;;;;;;;10.20;2.65;;;;;;;8.30;100.00;98455.85;4992587;57;1139273;-75
2023/11/04 09:27:13;;;;;;;10.32;3.33;;;;;;;8.33;100.00;98459.05;4992872;57;1139139;-71
2023/11/04 09:32:19;;;;;;;10.93;4.90;;;;;;;8.44;100.00;98452.68;4943559;57;1138716;-72
2023/11/04 09:37:25;;;;;;;4.57;2.57;;;;;;;8.53;100.00;98455.71;4866809;57;1138803;-70
2023/11/04 09:42:32;;;;;;;7.87;3.60;;;;;;;8.53;100.00;98463.62;4911133;58;1136915;-72
2023/11/04 09:47:38;;;;;;;10.40;4.10;;;;;;;8.52;100.00;98462.45;4907904;57;1136692;-73
2023/11/04 09:52:47;;;;;;;9.20;2.40;;;;;;;8.57;100.00;98465.42;4929510;58;1138981;-76
2023/11/04 09:57:53;;;;;;;6.40;2.37;;;;;;;8.59;100.00;98463.46;4911546;57;1136941;-74
2023/11/04 10:02:59;;;;;;;15.80;5.93;;;;;;;8.59;100.00;98455.56;4942661;57;1136879;-77
2023/11/04 10:08:05;;;;;;;12.50;5.03;;;;;;;8.66;100.00;98456.11;5014677;56;1138841;-73
2023/11/04 10:13:10;;;;;;;16.96;5.78;;;;;;;8.72;100.00;98443.59;4983054;57;1138923;-70
2023/11/04 10:18:16;;;;;;;8.67;3.30;;;;;;;8.76;100.00;98440.98;5026285;56;1139024;-71
2023/11/04 10:23:22;;;;;;;8.43;3.97;;;;;;;8.84;100.00;98438.89;5010281;57;1137038;-71
2023/11/04 10:28:27;;;;;;;25.30;9.93;;;;;;;8.92;100.00;98440.72;5059586;56;1136738;-72
2023/11/04 10:33:38;;;;;;;14.60;3.17;;;;;;;8.97;100.00;98445.03;4995623;57;1138548;-74
2023/11/04 10:38:48;;;;;;;11.07;3.67;;;;;;;9.06;100.00;98444.06;5024147;56;1138909;-73
2023/11/04 10:44:00;;;;;;;11.77;3.83;;;;;;;9.15;100.00;98438.67;4933801;57;1138618;-70
2023/11/04 10:49:22;;;;;;;11.57;5.33;;;;;;;9.20;100.00;98434.70;4932137;57;1138918;-68
2023/11/04 10:54:35;;;;;;;11.80;4.00;;;;;;;9.24;100.00;98430.77;4910595;57;1138903;-75
2023/11/04 11:00:00;;;;;;;14.93;3.87;;;;;;;9.35;100.00;98428.64;4824946;58;1138936;-73
2023/11/04 11:05:06;;;;;;;12.90;3.50;;;;;;;9.55;100.00;98427.03;5009653;57;1139017;-73
2023/11/04 11:10:14;;;;;;;27.82;13.20;;;;;;;9.68;100.00;98418.95;4989715;57;1139151;-71
2023/11/04 11:15:20;;;;;;;11.03;3.45;;;;;;;9.85;100.00;98415.81;5017355;56;1141045;-70
2023/11/04 11:20:31;;;;;;;11.10;4.10;;;;;;;10.02;100.00;98432.48;5054317;57;1138912;-72
2023/11/04 11:25:40;;;;;;;11.83;3.63;;;;;;;10.16;100.00;98416.78;4930288;58;1140890;-70
2023/11/04 11:30:47;;;;;;;24.15;10.32;;;;;;;10.29;100.00;98417.61;4928303;58;1141060;-72
2023/11/04 11:36:10;;;;;;;15.58;4.08;;;;;;;10.46;100.00;98404.69;4892842;58;1143220;-74
2023/11/04 11:41:17;;;;;;;20.50;6.40;;;;;;;10.54;100.00;98398.56;4961770;57;1141147;-72
2023/11/04 11:46:22;;;;;;;6.47;3.93;;;;;;;10.70;100.00;98395.00;4919133;57;1141260;-73
2023/11/04 11:51:28;;;;;;;8.53;3.77;;;;;;;10.78;100.00;98398.45;4967412;57;1138993;-73
2023/11/04 11:56:34;;;;;;;5.60;2.30;;;;;;;10.88;100.00;98397.73;5018998;57;1138922;-71
2023/11/04 12:01:40;;;;;;;11.40;5.83;;;;;;;10.92;100.00;98404.84;5021693;57;1138828;-72
2023/11/04 12:06:47;;;;;;;11.35;4.22;;;;;;;11.01;100.00;98397.17;5039939;57;1140952;-74
2023/11/04 12:11:53;;;;;;;9.03;4.67;;;;;;;11.12;100.00;98395.48;4987775;57;1141087;-72
2023/11/04 12:16:59;;;;;;;5.23;2.40;;;;;;;11.25;100.00;98402.34;4941393;57;1139302;-74
2023/11/04 12:22:05;;;;;;;10.60;5.10;;;;;;;11.31;100.00;98399.97;5103352;56;1138799;-73
2023/11/04 12:27:11;;;;;;;6.45;2.62;;;;;;;11.42;100.00;98398.27;5078885;56;1141025;-74
2023/11/04 12:32:23;;;;;;;11.50;3.58;;;;;;;11.48;100.00;98391.75;5078536;57;1138873;-73
2023/11/04 12:37:28;;;;;;;6.43;3.00;;;;;;;11.53;100.00;98393.37;5013007;57;1141072;-74
2023/11/04 12:42:34;;;;;;;9.70;2.40;;;;;;;11.56;100.00;98393.03;4983649;56;1139157;-74
2023/11/04 12:47:41;;;;;;;5.70;2.87;;;;;;;11.64;100.00;98390.31;5003656;56;1139094;-75
2023/11/04 12:52:47;;;;;;;5.90;2.63;;;;;;;11.74;100.00;98368.90;5011750;57;1138549;-73
2023/11/04 12:57:53;;;;;;;7.67;3.37;;;;;;;11.88;100.00;98368.64;4997341;56;1139056;-75
2023/11/04 13:02:59;;;;;;;8.50;2.70;;;;;;;11.92;100.00;98366.75;4996878;57;1138830;-71
2023/11/04 13:08:05;;;;;;;6.17;2.98;;;;;;;11.90;100.00;98354.72;4844091;58;1139388;-74
2023/11/04 13:13:11;;;;;;;2.45;1.52;;;;;;;11.88;100.00;98347.45;4908893;57;1139072;-75
2023/11/04 13:18:17;;;;;;;10.60;2.13;;;;;;;11.78;100.00;98353.48;4912254;57;1138909;-73
2023/11/04 13:23:23;;;;;;;5.50;2.33;;;;;;;11.66;100.00;98352.23;4993148;57;1140894;-74
2023/11/04 13:28:28;;;;;;;11.43;3.53;;;;;;;11.69;100.00;98357.19;4915033;56;1138763;-77
2023/11/04 13:33:37;;;;;;;8.07;2.60;;;;;;;11.71;100.00;98361.80;4904044;57;1140937;-72
2023/11/04 13:38:43;;;;;;;28.40;9.70;;;;;;;11.93;100.00;98360.45;4881313;58;1139077;-72
2023/11/04 13:43:51;;;;;;;17.13;3.53;;;;;;;12.09;100.00;98346.22;4996776;58;1140835;-75
2023/11/04 13:48:58;;;;;;;22.65;8.90;;;;;;;12.64;100.00;98347.09;4950345;56;1140807;-73
2023/11/04 13:54:05;;;;;;;9.97;4.10;;;;;;;13.50;100.00;98351.20;4916813;57;1141126;-73
2023/11/04 13:59:11;;;;;;;10.05;3.92;;;;;;;14.25;100.00;98346.56;5023598;56;1138884;-72
2023/11/04 14:04:17;;;;;;;55.23;28.20;;;;;;;14.16;100.00;98351.22;5040411;57;1141383;-75
2023/11/04 14:09:23;;;;;;;32.53;12.35;;;;;;;13.55;100.00;98347.48;4994647;57;1143107;-77
2023/11/04 14:14:29;;;;;;;15.60;5.37;;;;;;;12.96;100.00;98336.56;4928978;58;1142987;-72
2023/11/04 14:19:34;;;;;;;50.83;23.13;;;;;;;12.46;100.00;98336.05;4920016;57;1141253;-74
2023/11/04 14:24:40;;;;;;;12.63;5.78;;;;;;;12.16;100.00;98336.56;4911279;57;1143106;-73
2023/11/04 14:29:45;;;;;;;10.30;2.80;;;;;;;12.31;100.00;98329.43;4930046;58;1140926;-70
2023/11/04 14:34:51;;;;;;;24.20;16.63;;;;;;;12.21;100.00;98324.09;4959919;57;1140857;-75
2023/11/04 14:39:58;;;;;;;44.23;20.97;;;;;;;12.00;100.00;98327.95;4950264;57;1143144;-75
2023/11/04 14:45:05;;;;;;;19.57;12.97;;;;;;;11.77;100.00;98321.38;5011801;57;1142961;-72
2023/11/04 14:50:12;;;;;;;16.32;9.50;;;;;;;11.52;100.00;98322.91;4991104;57;1148981;-72
2023/11/04 14:55:18;;;;;;;5.30;3.85;;;;;;;11.31;100.00;98327.20;4991502;57;1141069;-73
2023/11/04 15:00:23;;;;;;;112.37;62.17;;;;;;;11.11;100.00;98314.47;5011302;57;1138932;-72
2023/11/04 15:05:29;;;;;;;111.17;64.77;;;;;;;10.97;100.00;98323.66;4990634;57;1145326;-72
2023/11/04 15:10:34;;;;;;;76.53;42.30;;;;;;;10.87;100.00;98322.54;4990865;56;1145131;-75
2023/11/04 15:15:40;;;;;;;14.25;5.35;;;;;;;10.76;100.00;98316.34;4990139;57;1143582;-76
2023/11/04 15:20:46;;;;;;;170.30;80.90;;;;;;;10.59;100.00;98320.88;5009575;57;1140852;-74
2023/11/04 15:25:51;;;;;;;174.10;72.83;;;;;;;10.41;100.00;98319.80;4989386;56;1145082;-75
2023/11/04 15:30:57;;;;;;;226.17;94.93;;;;;;;10.26;100.00;98306.16;5012631;57;1145227;-74
2023/11/04 15:36:03;;;;;;;12.27;6.63;;;;;;;10.14;100.00;98288.50;4998087;57;1145108;-78
2023/11/04 15:41:10;;;;;;;44.00;17.97;;;;;;;10.04;100.00;98283.93;4911645;57;1140872;-73
2023/11/04 15:46:16;;;;;;;70.45;33.92;;;;;;;9.95;100.00;98283.11;4910729;57;1142916;-73
2023/11/04 15:51:21;;;;;;;26.15;9.65;;;;;;;9.88;100.00;98279.52;4930262;57;1140901;-72
2023/11/04 15:56:27;;;;;;;12.43;6.33;;;;;;;9.84;100.00;98284.80;4927509;57;1138902;-73
2023/11/04 16:01:34;;;;;;;12.63;4.07;;;;;;;9.82;100.00;98282.83;4935593;57;1139053;-73
2023/11/04 16:06:40;;;;;;;14.15;5.17;;;;;;;9.78;100.00;98269.63;4922575;57;1138854;-75
2023/11/04 16:11:45;;;;;;;18.40;8.30;;;;;;;9.65;100.00;98268.84;5009862;57;1138656;-73
2023/11/04 16:16:51;;;;;;;21.37;8.80;;;;;;;9.58;100.00;98267.88;4995428;57;1138662;-75
2023/11/04 16:21:57;;;;;;;21.23;10.03;;;;;;;9.51;100.00;98274.30;4992719;58;1138880;-74
2023/11/04 16:27:02;;;;;;;18.53;8.97;;;;;;;9.40;100.00;98277.29;5020804;57;1140982;-74
2023/11/04 16:32:09;;;;;;;16.60;6.45;;;;;;;9.26;100.00;98274.00;5004172;56;1138864;-73
2023/11/04 16:37:15;;;;;;;18.70;8.50;;;;;;;9.12;100.00;98270.71;4936587;57;1139116;-73
2023/11/04 16:42:22;;;;;;;22.95;9.00;;;;;;;9.08;100.00;98261.47;4949821;58;1138856;-73
2023/11/04 16:47:28;;;;;;;26.80;10.33;;;;;;;8.98;100.00;98256.37;4931399;58;1138697;-71
2023/11/04 16:52:33;;;;;;;22.40;10.93;;;;;;;8.88;100.00;98247.78;4996592;57;1140612;-74
2023/11/04 16:57:39;;;;;;;59.00;27.50;;;;;;;8.80;100.00;98239.39;5011542;57;1140910;-73
2023/11/04 17:02:45;;;;;;;28.30;12.80;;;;;;;8.78;100.00;98241.84;5010398;56;1141403;-76
2023/11/04 17:07:50;;;;;;;195.60;80.83;;;;;;;8.57;100.00;98215.95;4929676;57;1141122;-74
2023/11/04 17:12:56;;;;;;;95.87;68.83;;;;;;;8.57;100.00;98215.95;4821706;58;1142927;-73
2023/11/04 17:18:02;;;;;;;34.60;15.30;;;;;;;8.54;100.00;98224.20;4955223;57;1141010;-74
2023/11/04 17:23:07;;;;;;;48.07;21.63;;;;;;;8.47;100.00;98220.56;4930540;57;1140598;-71
2023/11/04 17:28:13;;;;;;;45.70;26.93;;;;;;;8.40;100.00;98219.57;4942662;57;1141023;-74
2023/11/04 17:33:19;;;;;;;42.83;18.67;;;;;;;8.36;100.00;98220.38;5015700;57;1140965;-77
2023/11/04 17:38:24;;;;;;;28.85;11.45;;;;;;;8.33;100.00;98205.39;5002773;57;1141014;-66
2023/11/04 17:43:30;;;;;;;44.90;21.33;;;;;;;8.32;100.00;98203.73;5008406;57;1140743;-66
2023/11/04 17:48:36;;;;;;;55.63;28.30;;;;;;;8.28;100.00;98193.16;5000288;57;1140941;-69
2023/11/04 17:53:42;;;;;;;39.87;19.67;;;;;;;8.23;100.00;98178.34;5025626;57;1141000;-69
2023/11/04 17:58:48;;;;;;;20.77;10.97;;;;;;;8.20;100.00;98174.72;4974646;57;1141135;-66
2023/11/04 18:03:53;;;;;;;43.47;20.93;;;;;;;8.17;100.00;98169.27;4935119;57;1141175;-70
2023/11/04 18:08:59;;;;;;;78.25;38.40;;;;;;;8.15;100.00;98158.08;5003585;57;1141052;-69
2023/11/04 18:14:05;;;;;;;41.57;17.97;;;;;;;8.12;100.00;98149.17;4942576;57;1140881;-66
2023/11/04 18:19:12;;;;;;;50.60;19.40;;;;;;;8.06;100.00;98140.14;4933724;57;1141036;-69
2023/11/04 18:24:18;;;;;;;53.78;22.52;;;;;;;8.02;100.00;98124.81;4984815;57;1140996;-67
2023/11/04 18:29:23;;;;;;;44.38;21.40;;;;;;;7.97;100.00;98104.73;4971003;57;1140913;-69
2023/11/04 18:34:29;;;;;;;33.50;16.77;;;;;;;7.95;100.00;98106.69;4991700;57;1140857;-66
2023/11/04 18:39:35;;;;;;;44.33;19.47;;;;;;;7.89;100.00;98096.83;4980709;57;1140845;-70
2023/11/04 18:44:42;;;;;;;48.27;23.50;;;;;;;7.86;100.00;98098.45;5011022;57;1141141;-67
2023/11/04 18:49:48;;;;;;;35.60;15.18;;;;;;;7.84;100.00;98083.32;4990757;57;1141274;-68
2023/11/04 18:54:53;;;;;;;156.43;53.57;;;;;;;7.79;100.00;98068.53;4923104;57;1140974;-66
2023/11/04 18:59:59;;;;;;;33.27;12.27;;;;;;;7.74;100.00;98059.80;4911596;58;1143034;-66
2023/11/04 19:05:08;;;;;;;45.60;14.90;;;;;;;7.71;100.00;98046.95;4941376;57;1140892;-66
2023/11/04 19:10:13;;;;;;;55.30;18.27;;;;;;;7.70;100.00;98055.83;4910159;57;1140787;-68
2023/11/04 19:15:18;;;;;;;44.03;18.00;;;;;;;7.64;100.00;98049.39;4929631;57;1140925;-66
2023/11/04 19:20:24;;;;;;;43.20;18.60;;;;;;;7.60;100.00;98052.03;4914102;57;1141313;-69
2023/11/04 19:25:30;;;;;;;28.05;12.75;;;;;;;7.57;100.00;98051.53;4973570;57;1140856;-68
2023/11/04 19:30:35;;;;;;;26.53;11.67;;;;;;;7.56;100.00;98061.22;4959292;57;1141145;-68
2023/11/04 19:35:44;;;;;;;24.70;9.47;;;;;;;7.57;100.00;98082.59;5010446;57;1141063;-68
2023/11/04 19:40:49;;;;;;;21.27;9.50;;;;;;;7.58;100.00;98092.14;4841990;59;1139024;-70
2023/11/04 19:45:55;;;;;;;19.03;8.53;;;;;;;7.55;100.00;98096.39;4910712;57;1138847;-66
2023/11/04 19:51:00;;;;;;;15.43;7.00;;;;;;;7.50;100.00;98073.69;4930540;58;1138541;-68
2023/11/04 19:56:07;;;;;;;21.47;9.13;;;;;;;7.49;100.00;98075.98;4910889;57;1138821;-67
2023/11/04 20:01:13;;;;;;;22.75;10.28;;;;;;;7.49;100.00;98062.83;4901479;57;1138782;-70
2023/11/04 20:06:19;;;;;;;32.08;13.58;;;;;;;7.48;100.00;98055.95;4928226;57;1140854;-69
2023/11/04 20:11:25;;;;;;;37.75;20.08;;;;;;;7.45;100.00;98031.77;4992363;57;1141048;-70
2023/11/04 20:16:32;;;;;;;25.37;11.08;;;;;;;7.39;100.00;98014.33;4978650;57;1140906;-70
2023/11/04 20:21:38;;;;;;;46.47;20.13;;;;;;;7.38;100.00;97996.08;4923120;57;1141377;-69
2023/11/04 20:26:46;;;;;;;27.27;12.57;;;;;;;7.33;100.00;97994.44;4945579;57;1140857;-68
2023/11/04 20:31:53;;;;;;;27.73;13.80;;;;;;;7.29;100.00;97983.91;4935590;57;1140919;-69
2023/11/04 20:36:59;;;;;;;21.40;10.53;;;;;;;7.25;100.00;97966.30;4939297;57;1140941;-69
2023/11/04 20:42:05;;;;;;;22.53;8.60;;;;;;;7.23;100.00;97993.24;5014855;57;1141188;-68
2023/11/04 20:47:10;;;;;;;24.70;10.03;;;;;;;7.22;100.00;98002.11;5006322;57;1138831;-70
2023/11/04 20:52:16;;;;;;;18.67;8.10;;;;;;;7.18;100.00;98027.58;4990780;58;1140896;-68
2023/11/04 20:57:22;;;;;;;26.23;10.08;;;;;;;7.13;100.00;98028.53;5010398;57;1138971;-69
2023/11/04 21:02:28;;;;;;;61.05;28.55;;;;;;;7.11;100.00;98012.09;4991625;57;1141045;-69
2023/11/04 21:07:34;;;;;;;29.03;12.33;;;;;;;7.06;100.00;98008.12;4992191;57;1140882;-71
2023/11/04 21:12:40;;;;;;;28.15;11.12;;;;;;;7.02;100.00;98013.39;4992584;57;1141165;-68
2023/11/04 21:17:46;;;;;;;26.17;9.23;;;;;;;6.96;100.00;97994.79;5011759;57;1138703;-69
2023/11/04 21:22:53;;;;;;;27.37;12.83;;;;;;;6.92;100.00;98022.35;5011285;57;1138576;-70
2023/11/04 21:27:58;;;;;;;22.17;8.60;;;;;;;6.90;100.00;98013.80;5063344;56;1140868;-68
2023/11/04 21:33:04;;;;;;;16.97;9.43;;;;;;;6.90;100.00;98012.48;5016016;56;1139117;-71
2023/11/04 21:38:10;;;;;;;17.82;9.48;;;;;;;6.87;100.00;98004.94;5001715;57;1138871;-71
2023/11/04 21:43:15;;;;;;;16.00;8.00;;;;;;;6.82;100.00;98005.41;5075143;57;1138778;-68
2023/11/04 21:48:27;;;;;;;18.23;9.08;;;;;;;6.81;100.00;98005.56;4960486;57;1138653;-68
2023/11/04 21:53:28;;;;;;;21.48;7.87;;;;;;;6.80;100.00;97985.52;4928912;58;1138965;-70
2023/11/04 21:58:34;;;;;;;26.23;10.53;;;;;;;6.74;100.00;97980.39;4930444;58;1138639;-71
2023/11/04 22:03:42;;;;;;;39.48;18.67;;;;;;;6.68;100.00;97953.45;5010977;57;1140792;-68
2023/11/04 22:08:48;;;;;;;23.10;10.17;;;;;;;6.66;100.00;97940.48;4949383;58;1140672;-70
2023/11/04 22:13:54;;;;;;;32.30;14.50;;;;;;;6.65;100.00;97923.08;5010588;57;1140578;-68
2023/11/04 22:18:59;;;;;;;20.40;9.27;;;;;;;6.66;100.00;97917.34;4929863;58;1141370;-68
2023/11/04 22:24:05;;;;;;;16.80;7.90;;;;;;;6.66;100.00;97912.91;5031012;57;1136864;-70
2023/11/04 22:29:11;;;;;;;18.90;8.97;;;;;;;6.63;100.00;97905.34;4934649;57;1138878;-71
2023/11/04 22:34:17;;;;;;;15.20;7.10;;;;;;;6.62;100.00;97900.23;4930271;58;1139251;-70
2023/11/04 22:39:23;;;;;;;14.28;7.95;;;;;;;6.61;100.00;97882.34;4941421;57;1138974;-70
2023/11/04 22:44:28;;;;;;;23.12;9.28;;;;;;;6.61;100.00;97881.03;4910882;58;1139086;-67
2023/11/04 22:49:34;;;;;;;11.83;6.53;;;;;;;6.60;100.00;97871.51;4910345;56;1138890;-71
2023/11/04 22:54:39;;;;;;;15.90;6.47;;;;;;;6.61;100.00;97865.27;4911075;57;1138892;-68
2023/11/04 22:59:45;;;;;;;14.57;6.67;;;;;;;6.62;100.00;97849.85;4931268;57;1138472;-68
2023/11/04 23:04:51;;;;;;;15.47;5.80;;;;;;;6.60;100.00;97824.73;4911807;57;1138859;-68
2023/11/04 23:09:56;;;;;;;16.57;6.47;;;;;;;6.60;100.00;97804.55;4911422;57;1138835;-68